createdAt,value
2023-03-02T00:01:48.566Z,101513.44
2023-03-02T00:04:21.662Z,101517.75
2023-03-02T00:06:50.655Z,101523.47
2023-03-02T00:09:17.619Z,101515.66
2023-03-02T00:11:45.660Z,101516.78
2023-03-02T00:14:12.239Z,101518.56
2023-03-02T00:16:40.295Z,101525.81
2023-03-02T00:19:06.833Z,101525.97
2023-03-02T00:21:33.357Z,101519.94
2023-03-02T00:23:59.899Z,101522.75
2023-03-02T00:26:26.508Z,101525.66
2023-03-02T00:28:52.968Z,101532.06
2023-03-02T00:31:19.592Z,101525.38
2023-03-02T00:33:46.265Z,101530.75
2023-03-02T00:36:17.757Z,101534.13
2023-03-02T00:38:44.920Z,101525.16
2023-03-02T00:41:13.603Z,101534.09
2023-03-02T00:43:40.723Z,101532.69
2023-03-02T00:46:18.829Z,101527.25
2023-03-02T00:48:46.393Z,101533.22
2023-03-02T00:51:13.487Z,101538.78
2023-03-02T00:53:41.467Z,101542.38
2023-03-02T00:56:09.210Z,101540.84
2023-03-02T00:58:36.095Z,101534.00
2023-03-02T01:01:11.347Z,101533.00
2023-03-02T01:03:38.198Z,101526.06
2023-03-02T01:06:05.416Z,101522.66
2023-03-02T01:08:32.195Z,101522.72
2023-03-02T01:11:01.400Z,101519.50
2023-03-02T01:13:28.561Z,101521.72
2023-03-02T01:16:04.537Z,101516.16
2023-03-02T01:18:32.225Z,101515.97
2023-03-02T01:21:08.623Z,101514.75
2023-03-02T01:23:35.380Z,101511.91
2023-03-02T01:26:02.639Z,101506.91
2023-03-02T01:28:29.423Z,101500.19
2023-03-02T01:30:55.957Z,101495.94
2023-03-02T01:33:22.495Z,101500.44
2023-03-02T01:35:49.073Z,101509.63
2023-03-02T01:38:15.926Z,101511.53
2023-03-02T01:40:42.372Z,101498.44
2023-03-02T01:43:17.416Z,101498.06
2023-03-02T01:45:55.869Z,101491.25
2023-03-02T01:48:34.216Z,101489.56
2023-03-02T01:51:02.843Z,101499.81
2023-03-02T01:53:32.560Z,101487.56
2023-03-02T01:56:00.746Z,101479.91
2023-03-02T01:58:32.126Z,101483.38
2023-03-02T02:00:58.860Z,101479.19
2023-03-02T02:03:28.945Z,101478.09
2023-03-02T02:06:13.411Z,101481.19
2023-03-02T02:08:40.007Z,101476.69
2023-03-02T02:11:06.755Z,101485.56
2023-03-02T02:13:33.439Z,101474.44
2023-03-02T02:16:00.438Z,101472.75
2023-03-02T02:18:27.464Z,101470.25
2023-03-02T02:20:55.492Z,101474.00
2023-03-02T02:23:30.451Z,101478.03
2023-03-02T02:26:02.217Z,101475.22
2023-03-02T02:28:41.024Z,101466.88
2023-03-02T02:31:22.912Z,101466.06
2023-03-02T02:33:56.509Z,101478.81
2023-03-02T02:36:33.635Z,101464.91
2023-03-02T02:39:02.439Z,101472.25
2023-03-02T02:41:34.374Z,101470.19
2023-03-02T02:44:00.882Z,101465.41
2023-03-02T02:46:27.907Z,101464.69
2023-03-02T02:48:54.483Z,101469.28
2023-03-02T02:51:28.784Z,101473.34
2023-03-02T02:54:01.714Z,101475.53
2023-03-02T02:56:34.957Z,101476.50
2023-03-02T02:59:07.077Z,101469.78
2023-03-02T03:01:34.951Z,101475.34
2023-03-02T03:04:04.124Z,101478.13
2023-03-02T03:06:42.311Z,101469.47
2023-03-02T03:09:10.903Z,101471.53
2023-03-02T03:11:46.684Z,101467.78
2023-03-02T03:14:19.842Z,101482.22
2023-03-02T03:16:48.237Z,101478.28
2023-03-02T03:19:20.714Z,101476.63
2023-03-02T03:21:49.819Z,101476.75
2023-03-02T03:24:16.626Z,101477.97
2023-03-02T03:26:43.397Z,101473.66
2023-03-02T03:29:10.658Z,101472.69
2023-03-02T03:31:37.614Z,101466.81
2023-03-02T03:34:04.949Z,101477.50
2023-03-02T03:36:33.123Z,101476.69
2023-03-02T03:39:00.652Z,101469.00
2023-03-02T03:41:27.642Z,101462.16
2023-03-02T03:43:54.653Z,101455.34
2023-03-02T03:46:21.656Z,101461.47
2023-03-02T03:48:48.323Z,101464.22
2023-03-02T03:51:15.722Z,101459.91
2023-03-02T03:53:42.342Z,101460.88
2023-03-02T03:56:08.908Z,101465.31
2023-03-02T03:58:35.722Z,101461.94
2023-03-02T04:01:02.460Z,101463.94
2023-03-02T04:03:29.181Z,101462.09
2023-03-02T04:05:55.789Z,101466.69
2023-03-02T04:08:22.552Z,101459.94
2023-03-02T04:10:49.083Z,101469.81
2023-03-02T04:13:15.831Z,101464.66
2023-03-02T04:15:42.466Z,101465.75
2023-03-02T04:18:09.019Z,101471.97
2023-03-02T04:20:35.718Z,101464.19
2023-03-02T04:23:02.388Z,101465.16
2023-03-02T04:25:30.177Z,101461.81
2023-03-02T04:27:57.430Z,101468.19
2023-03-02T04:30:26.184Z,101463.72
2023-03-02T04:32:53.309Z,101461.34
2023-03-02T04:35:20.054Z,101461.47
2023-03-02T04:37:47.092Z,101474.00
2023-03-02T04:40:14.745Z,101470.34
2023-03-02T04:42:41.813Z,101471.56
2023-03-02T04:45:09.080Z,101472.50
2023-03-02T04:47:35.666Z,101472.78
2023-03-02T04:50:02.448Z,101473.72
2023-03-02T04:52:28.993Z,101471.31
2023-03-02T04:54:55.560Z,101472.28
2023-03-02T04:57:22.023Z,101472.44
2023-03-02T04:59:48.561Z,101466.28
2023-03-02T05:02:15.085Z,101467.38
2023-03-02T05:04:42.470Z,101466.56
2023-03-02T05:07:09.220Z,101468.47
2023-03-02T05:09:35.811Z,101463.19
2023-03-02T05:12:02.346Z,101470.13
2023-03-02T05:14:29.814Z,101476.09
2023-03-02T05:16:56.975Z,101461.94
2023-03-02T05:19:23.590Z,101462.47
2023-03-02T05:21:50.472Z,101464.84
2023-03-02T05:24:16.940Z,101446.13
2023-03-02T05:26:43.448Z,101451.03
2023-03-02T05:29:10.058Z,101452.78
2023-03-02T05:31:38.611Z,101450.50
2023-03-02T05:34:07.309Z,101449.31
2023-03-02T05:36:34.264Z,101446.34
2023-03-02T05:39:01.129Z,101444.97
2023-03-02T05:41:27.927Z,101447.22
2023-03-02T05:43:54.603Z,101443.56
2023-03-02T05:46:22.155Z,101441.97
2023-03-02T05:48:50.887Z,101451.44
2023-03-02T05:51:17.397Z,101447.22
2023-03-02T05:53:44.025Z,101446.25
2023-03-02T05:56:10.661Z,101443.09
2023-03-02T05:58:37.194Z,101444.25
2023-03-02T06:01:09.072Z,101443.25
2023-03-02T06:03:35.639Z,101451.13
2023-03-02T06:06:02.161Z,101448.06
2023-03-02T06:08:28.676Z,101445.28
2023-03-02T06:10:56.677Z,101447.94
2023-03-02T06:13:23.211Z,101450.88
2023-03-02T06:15:49.761Z,101461.28
2023-03-02T06:18:16.471Z,101460.38
2023-03-02T06:20:43.527Z,101461.78
2023-03-02T06:23:11.416Z,101471.19
2023-03-02T06:25:40.255Z,101468.91
2023-03-02T06:28:06.859Z,101471.63
2023-03-02T06:30:33.389Z,101473.06
2023-03-02T06:33:00.313Z,101474.53
2023-03-02T06:35:27.144Z,101481.25
2023-03-02T06:37:53.763Z,101487.09
2023-03-02T06:40:21.754Z,101488.53
2023-03-02T06:42:48.417Z,101490.50
2023-03-02T06:45:15.085Z,101490.50
2023-03-02T06:47:41.676Z,101495.63
2023-03-02T06:50:09.516Z,101495.50
2023-03-02T06:52:38.494Z,101498.72
2023-03-02T06:55:05.538Z,101498.81
2023-03-02T06:57:34.340Z,101499.41
2023-03-02T07:00:10.015Z,101503.00
2023-03-02T07:02:37.700Z,101507.16
2023-03-02T07:05:05.522Z,101510.22
2023-03-02T07:07:32.219Z,101504.38
2023-03-02T07:09:58.815Z,101502.69
2023-03-02T07:12:25.505Z,101500.31
2023-03-02T07:15:02.289Z,101505.59
2023-03-02T07:17:28.863Z,101495.31
2023-03-02T07:19:55.428Z,101501.28
2023-03-02T07:22:22.680Z,101497.94
2023-03-02T07:24:49.355Z,101493.75
2023-03-02T07:27:20.590Z,101487.34
2023-03-02T07:29:47.153Z,101491.25
2023-03-02T07:32:16.582Z,101492.09
2023-03-02T07:34:43.171Z,101493.19
2023-03-02T07:37:09.771Z,101495.81
2023-03-02T07:39:38.643Z,101485.09
2023-03-02T07:42:07.086Z,101492.59
2023-03-02T07:44:36.155Z,101491.78
2023-03-02T07:47:02.708Z,101488.41
2023-03-02T07:49:29.286Z,101490.09
2023-03-02T07:51:58.183Z,101481.19
2023-03-02T07:54:27.538Z,101477.16
2023-03-02T07:56:54.116Z,101477.84
2023-03-02T07:59:22.979Z,101483.13
2023-03-02T08:01:49.832Z,101486.50
2023-03-02T08:04:18.914Z,101479.00
2023-03-02T08:06:48.403Z,101482.59
2023-03-02T08:09:16.855Z,101483.31
2023-03-02T08:11:43.724Z,101484.84
2023-03-02T08:14:10.807Z,101486.25
2023-03-02T08:16:39.873Z,101492.22
2023-03-02T08:19:07.765Z,101491.13
2023-03-02T08:21:34.908Z,101490.16
2023-03-02T08:24:01.760Z,101488.91
2023-03-02T08:26:28.414Z,101491.28
2023-03-02T08:28:57.378Z,101497.16
2023-03-02T08:31:26.730Z,101491.31
2023-03-02T08:33:53.650Z,101497.16
2023-03-02T08:36:20.383Z,101494.13
2023-03-02T08:38:48.094Z,101500.38
2023-03-02T08:41:20.175Z,101500.53
2023-03-02T08:43:47.829Z,101498.72
2023-03-02T08:46:19.121Z,101494.66
2023-03-02T08:48:50.735Z,101493.31
2023-03-02T08:51:25.223Z,101488.97
2023-03-02T08:53:55.484Z,101489.66
2023-03-02T08:56:32.253Z,101485.31
2023-03-02T08:59:02.257Z,101483.22
2023-03-02T09:01:32.450Z,101489.94
2023-03-02T09:04:00.997Z,101486.00
2023-03-02T09:06:29.745Z,101482.94
2023-03-02T09:08:56.621Z,101480.84
2023-03-02T09:11:23.129Z,101478.72
2023-03-02T09:13:53.308Z,101479.56
2023-03-02T09:16:20.431Z,101478.72
2023-03-02T09:18:48.130Z,101480.41
2023-03-02T09:21:14.829Z,101481.78
2023-03-02T09:23:41.590Z,101473.41
2023-03-02T09:26:10.260Z,101480.09
2023-03-02T09:28:37.695Z,101476.31
2023-03-02T09:31:06.202Z,101474.06
2023-03-02T09:33:35.874Z,101474.75
2023-03-02T09:36:09.452Z,101477.50
2023-03-02T09:38:36.339Z,101479.19
2023-03-02T09:41:12.212Z,101484.13
2023-03-02T09:43:49.461Z,101480.25
2023-03-02T09:46:49.662Z,101482.19
2023-03-02T09:49:26.085Z,101481.06
2023-03-02T09:52:04.746Z,101489.28
2023-03-02T09:54:33.451Z,101474.75
2023-03-02T09:57:00.172Z,101477.94
2023-03-02T09:59:40.253Z,101479.72
2023-03-02T10:02:16.130Z,101485.72
2023-03-02T10:04:51.827Z,101487.09
2023-03-02T10:07:32.790Z,101480.22
2023-03-02T10:10:19.341Z,101497.66
2023-03-02T10:12:55.256Z,101487.88
2023-03-02T10:15:26.171Z,101491.53
2023-03-02T10:18:11.345Z,101495.66
2023-03-02T10:21:21.657Z,101486.09
2023-03-02T10:24:16.616Z,101486.25
2023-03-02T10:26:51.799Z,101476.16
2023-03-02T10:29:27.239Z,101481.16
2023-03-02T10:32:02.628Z,101471.75
2023-03-02T10:34:30.592Z,101481.25
2023-03-02T10:36:58.392Z,101470.03
2023-03-02T10:39:25.164Z,101466.94
2023-03-02T10:41:55.043Z,101463.34
2023-03-02T10:44:27.611Z,101468.28
2023-03-02T10:46:54.393Z,101466.97
2023-03-02T10:49:24.244Z,101469.88
2023-03-02T10:52:13.655Z,101464.22
2023-03-02T10:54:40.780Z,101471.22
2023-03-02T10:57:30.137Z,101470.38
2023-03-02T11:00:02.626Z,101460.09
2023-03-02T11:02:37.749Z,101459.63
2023-03-02T11:05:17.523Z,101453.56
2023-03-02T11:07:59.083Z,101448.00
2023-03-02T11:10:32.018Z,101441.72
2023-03-02T11:13:00.274Z,101445.75
2023-03-02T11:15:34.698Z,101436.34
2023-03-02T11:18:08.587Z,101428.22
2023-03-02T11:20:51.373Z,101422.78
2023-03-02T11:23:31.732Z,101428.31
2023-03-02T11:26:04.312Z,101431.84
2023-03-02T11:28:42.073Z,101426.66
2023-03-02T11:31:17.417Z,101421.97
2023-03-02T11:34:11.630Z,101423.94
2023-03-02T11:36:56.370Z,101424.38
2023-03-02T11:39:28.702Z,101420.97
2023-03-02T11:41:55.520Z,101416.00
2023-03-02T11:44:22.135Z,101410.00
2023-03-02T11:46:53.916Z,101405.06
2023-03-02T11:49:43.398Z,101406.53
2023-03-02T11:52:20.875Z,101401.06
2023-03-02T11:55:26.383Z,101405.34
2023-03-02T12:03:17.464Z,101392.56
2023-03-02T12:06:00.750Z,101400.25
2023-03-02T12:08:27.229Z,101396.66
2023-03-02T12:11:18.851Z,101386.94
2023-03-02T12:13:58.707Z,101401.06
2023-03-02T12:16:42.346Z,101397.72
2023-03-02T12:19:17.713Z,101397.72
2023-03-02T12:21:57.566Z,101387.66
2023-03-02T12:24:44.915Z,101376.53
2023-03-02T12:27:20.854Z,101381.28
2023-03-02T12:30:25.114Z,101368.78
2023-03-02T12:33:20.285Z,101361.75
2023-03-02T12:35:50.125Z,101355.84
2023-03-02T12:38:29.197Z,101354.78
2023-03-02T12:41:30.980Z,101355.81
2023-03-02T12:44:18.672Z,101341.38
2023-03-02T12:46:47.426Z,101346.19
2023-03-02T12:49:35.627Z,101343.69
2023-03-02T12:52:18.187Z,101342.91
2023-03-02T12:54:44.777Z,101341.53
2023-03-02T12:57:17.730Z,101339.94
2023-03-02T12:59:55.890Z,101341.25
2023-03-02T13:02:44.185Z,101337.97
2023-03-02T13:05:18.737Z,101329.34
2023-03-02T13:07:58.698Z,101332.91
2023-03-02T13:10:33.606Z,101336.19
2023-03-02T13:13:00.643Z,101342.00
2023-03-02T13:15:27.448Z,101330.19
2023-03-02T13:17:55.877Z,101321.16
2023-03-02T13:20:26.354Z,101324.78
2023-03-02T13:22:53.312Z,101333.78
2023-03-02T13:25:26.300Z,101329.84
2023-03-02T13:27:55.579Z,101322.97
2023-03-02T13:30:29.549Z,101322.94
2023-03-02T13:33:06.387Z,101322.44
2023-03-02T13:35:37.294Z,101322.34
2023-03-02T13:38:14.240Z,101318.53
2023-03-02T13:40:44.778Z,101314.53
2023-03-02T13:43:40.817Z,101312.19
2023-03-02T13:46:15.873Z,101314.94
2023-03-02T13:49:09.166Z,101306.16
2023-03-02T13:51:42.760Z,101308.50
2023-03-02T13:54:27.940Z,101306.38
2023-03-02T13:56:56.941Z,101301.19
2023-03-02T13:59:23.813Z,101298.19
2023-03-02T14:01:51.103Z,101294.97
2023-03-02T14:04:21.738Z,101300.44
2023-03-02T14:06:49.125Z,101287.34
2023-03-02T14:09:15.954Z,101287.63
2023-03-02T14:11:44.385Z,101287.50
2023-03-02T14:14:20.961Z,101291.22
2023-03-02T14:16:47.569Z,101291.59
2023-03-02T14:19:16.350Z,101293.91
2023-03-02T14:21:43.485Z,101290.84
2023-03-02T14:24:10.281Z,101284.94
2023-03-02T14:26:38.132Z,101284.69
2023-03-02T14:29:26.809Z,101285.59
2023-03-02T14:31:55.559Z,101271.44
2023-03-02T14:34:22.165Z,101278.72
2023-03-02T14:36:52.387Z,101273.72
2023-03-02T14:39:27.135Z,101274.47
2023-03-02T14:41:54.837Z,101279.44
2023-03-02T14:44:22.339Z,101267.78
2023-03-02T14:46:49.613Z,101264.16
2023-03-02T14:49:16.164Z,101268.22
2023-03-02T14:51:44.908Z,101270.22
2023-03-02T14:54:18.096Z,101268.94
2023-03-02T14:56:45.101Z,101264.66
2023-03-02T14:59:14.782Z,101265.09
2023-03-02T15:01:44.579Z,101267.03
2023-03-02T15:04:11.423Z,101269.75
2023-03-02T15:06:39.077Z,101269.41
2023-03-02T15:09:06.569Z,101267.16
2023-03-02T15:11:33.377Z,101267.41
2023-03-02T15:14:00.123Z,101274.63
2023-03-02T15:16:26.741Z,101273.31
2023-03-02T15:18:53.498Z,101273.19
2023-03-02T15:21:22.397Z,101263.69
2023-03-02T15:23:49.722Z,101267.19
2023-03-02T15:26:17.335Z,101269.53
2023-03-02T15:28:45.710Z,101264.56
2023-03-02T15:31:16.432Z,101266.22
2023-03-02T15:33:45.606Z,101266.09
2023-03-02T15:36:13.810Z,101261.09
2023-03-02T15:38:40.572Z,101256.09
2023-03-02T15:41:08.917Z,101252.75
2023-03-02T15:43:35.493Z,101250.44
2023-03-02T15:46:02.413Z,101253.47
2023-03-02T15:48:30.420Z,101246.81
2023-03-02T15:50:58.774Z,101257.81
2023-03-02T15:53:26.746Z,101257.38
2023-03-02T15:55:53.629Z,101253.19
2023-03-02T15:58:21.865Z,101258.72
2023-03-02T16:00:49.828Z,101249.19
2023-03-02T16:03:19.282Z,101255.88
2023-03-02T16:05:46.101Z,101255.56
2023-03-02T16:08:12.684Z,101255.56
2023-03-02T16:10:42.849Z,101255.91
2023-03-02T16:13:13.210Z,101260.75
2023-03-02T16:15:40.907Z,101244.25
2023-03-02T16:18:11.135Z,101254.72
2023-03-02T16:20:39.288Z,101252.94
2023-03-02T16:23:07.779Z,101256.13
2023-03-02T16:25:40.288Z,101257.97
2023-03-02T16:28:07.693Z,101251.97
2023-03-02T16:30:35.354Z,101249.81
2023-03-02T16:33:04.085Z,101248.50
2023-03-02T16:35:32.030Z,101249.00
2023-03-02T16:37:59.404Z,101257.38
2023-03-02T16:40:25.990Z,101250.69
2023-03-02T16:42:52.600Z,101254.19
2023-03-02T16:45:20.628Z,101254.38
2023-03-02T16:47:48.179Z,101258.38
2023-03-02T16:50:16.640Z,101256.69
2023-03-02T16:52:43.591Z,101265.69
2023-03-02T16:55:16.554Z,101268.69
2023-03-02T16:57:43.429Z,101273.69
2023-03-02T17:00:12.371Z,101278.66
2023-03-02T17:02:38.969Z,101279.34
2023-03-02T17:05:06.086Z,101279.72
2023-03-02T17:07:32.662Z,101285.34
2023-03-02T17:09:59.326Z,101287.19
2023-03-02T17:12:25.900Z,101285.69
2023-03-02T17:14:52.616Z,101293.00
2023-03-02T17:17:19.300Z,101304.03
2023-03-02T17:19:45.856Z,101299.84
2023-03-02T17:22:12.971Z,101308.03
2023-03-02T17:24:39.678Z,101308.38
2023-03-02T17:27:15.916Z,101308.69
2023-03-02T22:14:47.347Z,101363.63
2023-03-02T22:17:22.125Z,101366.28
2023-03-02T22:19:52.596Z,101362.09
2023-03-02T22:22:26.393Z,101365.75
2023-03-02T22:24:54.732Z,101371.22
2023-03-02T22:27:25.513Z,101372.03
2023-03-02T22:29:55.260Z,101384.50
2023-03-02T22:32:36.521Z,101387.88
2023-03-02T22:35:22.025Z,101368.94
2023-03-02T22:37:49.434Z,101373.72
2023-03-02T22:40:36.730Z,101379.09
2023-03-02T22:43:14.616Z,101383.59
2023-03-02T22:45:41.933Z,101378.22
2023-03-02T22:48:28.768Z,101388.59
2023-03-02T22:50:55.368Z,101381.84
2023-03-02T22:53:29.559Z,101388.16
2023-03-02T22:56:04.850Z,101387.19
2023-03-02T22:58:36.329Z,101385.97
2023-03-02T23:01:13.860Z,101381.63
2023-03-02T23:03:44.772Z,101381.31
2023-03-02T23:06:38.465Z,101379.91
2023-03-02T23:09:06.330Z,101376.47
2023-03-02T23:11:41.300Z,101379.53
2023-03-02T23:14:19.079Z,101389.28
2023-03-02T23:16:48.687Z,101381.09
2023-03-02T23:19:15.210Z,101372.31
2023-03-02T23:21:46.757Z,101370.84
2023-03-02T23:24:13.454Z,101374.81
2023-03-02T23:26:40.325Z,101370.47
2023-03-02T23:29:07.041Z,101363.69
2023-03-02T23:31:33.762Z,101346.56
2023-03-02T23:34:00.232Z,101352.72
2023-03-02T23:36:27.802Z,101359.19
2023-03-02T23:38:54.302Z,101348.00
2023-03-02T23:41:23.141Z,101348.84
2023-03-02T23:43:49.870Z,101350.50
2023-03-02T23:46:18.603Z,101349.38
2023-03-02T23:48:45.169Z,101350.50
2023-03-02T23:51:14.160Z,101349.53
2023-03-02T23:53:40.719Z,101352.19
2023-03-02T23:56:07.477Z,101355.53
2023-03-02T23:58:34.166Z,101350.22
